sensor_id;sensor_type;location;lat;lon;timestamp;pressure;altitude;pressure_sealevel;temperature;humidity
75192;BME280;63771;52.580;9.734;2023-02-04T00:02:18;102416.50;;;4.59;85.95
75192;BME280;63771;52.580;9.734;2023-02-04T00:04:44;102421.91;;;4.55;86.02
75192;BME280;63771;52.580;9.734;2023-02-04T00:07:09;102422.28;;;4.58;85.85
75192;BME280;63771;52.580;9.734;2023-02-04T00:09:34;102424.09;;;4.47;86.53
75192;BME280;63771;52.580;9.734;2023-02-04T00:11:59;102434.31;;;4.41;86.80
75192;BME280;63771;52.580;9.734;2023-02-04T00:14:25;102447.13;;;4.42;86.23
75192;BME280;63771;52.580;9.734;2023-02-04T00:16:50;102449.56;;;4.35;87.22
75192;BME280;63771;52.580;9.734;2023-02-04T00:19:15;102449.66;;;4.30;87.41
75192;BME280;63771;52.580;9.734;2023-02-04T00:21:41;102453.78;;;4.29;87.54
75192;BME280;63771;52.580;9.734;2023-02-04T00:24:06;102454.41;;;4.34;86.13
75192;BME280;63771;52.580;9.734;2023-02-04T00:26:31;102464.28;;;4.32;85.80
75192;BME280;63771;52.580;9.734;2023-02-04T00:28:57;102457.63;;;4.33;85.02
75192;BME280;63771;52.580;9.734;2023-02-04T00:31:22;102473.78;;;4.28;84.56
75192;BME280;63771;52.580;9.734;2023-02-04T00:33:47;102469.44;;;4.27;84.81
75192;BME280;63771;52.580;9.734;2023-02-04T00:36:13;102469.94;;;4.24;85.41
75192;BME280;63771;52.580;9.734;2023-02-04T00:38:38;102465.59;;;4.23;84.53
75192;BME280;63771;52.580;9.734;2023-02-04T00:41:03;102477.72;;;4.26;85.13
75192;BME280;63771;52.580;9.734;2023-02-04T00:43:30;102481.66;;;4.24;84.98
75192;BME280;63771;52.580;9.734;2023-02-04T00:45:55;102499.81;;;4.21;84.79
75192;BME280;63771;52.580;9.734;2023-02-04T00:48:21;102503.88;;;4.26;84.41
75192;BME280;63771;52.580;9.734;2023-02-04T00:50:46;102513.50;;;4.29;84.45
75192;BME280;63771;52.580;9.734;2023-02-04T00:53:11;102516.72;;;4.28;84.27
75192;BME280;63771;52.580;9.734;2023-02-04T00:55:37;102516.22;;;4.30;84.24
75192;BME280;63771;52.580;9.734;2023-02-04T00:58:02;102515.94;;;4.34;83.46
75192;BME280;63771;52.580;9.734;2023-02-04T01:00:27;102525.16;;;4.34;83.84
75192;BME280;63771;52.580;9.734;2023-02-04T01:02:53;102518.41;;;4.40;83.41
75192;BME280;63771;52.580;9.734;2023-02-04T01:05:18;102532.41;;;4.38;84.11
75192;BME280;63771;52.580;9.734;2023-02-04T01:07:43;102537.47;;;4.38;83.28
75192;BME280;63771;52.580;9.734;2023-02-04T01:10:09;102547.81;;;4.39;82.74
75192;BME280;63771;52.580;9.734;2023-02-04T01:12:35;102554.47;;;4.39;82.81
75192;BME280;63771;52.580;9.734;2023-02-04T01:15:00;102559.72;;;4.40;82.50
75192;BME280;63771;52.580;9.734;2023-02-04T01:17:26;102566.25;;;4.33;82.62
75192;BME280;63771;52.580;9.734;2023-02-04T01:19:51;102580.03;;;4.35;82.61
75192;BME280;63771;52.580;9.734;2023-02-04T01:22:16;102595.66;;;4.32;82.71
75192;BME280;63771;52.580;9.734;2023-02-04T01:24:42;102596.44;;;4.44;82.11
75192;BME280;63771;52.580;9.734;2023-02-04T01:27:07;102606.13;;;4.41;81.96
75192;BME280;63771;52.580;9.734;2023-02-04T01:29:32;102607.53;;;4.39;81.32
75192;BME280;63771;52.580;9.734;2023-02-04T01:31:58;102609.34;;;4.40;81.82
75192;BME280;63771;52.580;9.734;2023-02-04T01:34:23;102613.63;;;4.47;81.00
75192;BME280;63771;52.580;9.734;2023-02-04T01:36:50;102616.44;;;4.42;81.05
75192;BME280;63771;52.580;9.734;2023-02-04T01:39:15;102623.72;;;4.47;80.22
75192;BME280;63771;52.580;9.734;2023-02-04T01:41:40;102616.06;;;4.52;79.88
75192;BME280;63771;52.580;9.734;2023-02-04T01:44:06;102630.41;;;4.46;79.06
75192;BME280;63771;52.580;9.734;2023-02-04T01:46:31;102638.19;;;4.48;78.08
75192;BME280;63771;52.580;9.734;2023-02-04T01:48:59;102641.41;;;4.47;78.28
75192;BME280;63771;52.580;9.734;2023-02-04T01:51:26;102647.53;;;4.36;78.32
75192;BME280;63771;52.580;9.734;2023-02-04T01:53:56;102651.41;;;4.39;78.27
75192;BME280;63771;52.580;9.734;2023-02-04T01:56:24;102652.72;;;4.43;77.13
75192;BME280;63771;52.580;9.734;2023-02-04T01:58:54;102662.69;;;4.36;77.90
75192;BME280;63771;52.580;9.734;2023-02-04T02:01:40;102678.63;;;4.29;78.27
75192;BME280;63771;52.580;9.734;2023-02-04T02:04:10;102673.78;;;4.12;78.70
75192;BME280;63771;52.580;9.734;2023-02-04T02:06:37;102681.88;;;4.04;78.75
75192;BME280;63771;52.580;9.734;2023-02-04T02:09:03;102678.50;;;3.98;79.10
75192;BME280;63771;52.580;9.734;2023-02-04T02:11:29;102696.00;;;3.91;79.07
75192;BME280;63771;52.580;9.734;2023-02-04T02:13:55;102695.88;;;3.84;79.62
75192;BME280;63771;52.580;9.734;2023-02-04T02:16:21;102698.97;;;3.70;80.09
75192;BME280;63771;52.580;9.734;2023-02-04T02:18:47;102696.53;;;3.59;80.67
75192;BME280;63771;52.580;9.734;2023-02-04T02:21:13;102701.63;;;3.53;81.18
75192;BME280;63771;52.580;9.734;2023-02-04T02:23:53;102710.41;;;3.44;81.58
75192;BME280;63771;52.580;9.734;2023-02-04T02:26:21;102713.75;;;3.32;81.76
75192;BME280;63771;52.580;9.734;2023-02-04T02:28:48;102729.63;;;3.25;82.42
75192;BME280;63771;52.580;9.734;2023-02-04T02:31:15;102746.16;;;3.18;82.71
75192;BME280;63771;52.580;9.734;2023-02-04T02:33:42;102742.34;;;3.08;83.11
75192;BME280;63771;52.580;9.734;2023-02-04T02:36:08;102746.47;;;3.02;83.85
75192;BME280;63771;52.580;9.734;2023-02-04T02:38:34;102748.09;;;2.96;84.16
75192;BME280;63771;52.580;9.734;2023-02-04T02:40:59;102751.16;;;2.88;84.44
75192;BME280;63771;52.580;9.734;2023-02-04T02:43:26;102750.72;;;2.79;84.77
75192;BME280;63771;52.580;9.734;2023-02-04T02:45:52;102756.91;;;2.76;85.07
75192;BME280;63771;52.580;9.734;2023-02-04T02:48:19;102767.25;;;2.72;84.94
75192;BME280;63771;52.580;9.734;2023-02-04T02:50:44;102778.00;;;2.71;85.09
75192;BME280;63771;52.580;9.734;2023-02-04T02:53:15;102772.78;;;2.64;85.35
75192;BME280;63771;52.580;9.734;2023-02-04T02:55:41;102776.00;;;2.57;85.10
75192;BME280;63771;52.580;9.734;2023-02-04T02:58:23;102771.00;;;2.51;84.57
75192;BME280;63771;52.580;9.734;2023-02-04T03:00:50;102777.19;;;2.48;84.81
75192;BME280;63771;52.580;9.734;2023-02-04T03:03:19;102776.50;;;2.43;84.93
75192;BME280;63771;52.580;9.734;2023-02-04T03:05:50;102783.38;;;2.39;84.96
75192;BME280;63771;52.580;9.734;2023-02-04T03:08:17;102780.16;;;2.34;85.16
75192;BME280;63771;52.580;9.734;2023-02-04T03:10:44;102791.66;;;2.26;85.57
75192;BME280;63771;52.580;9.734;2023-02-04T03:13:11;102798.53;;;2.22;85.75
75192;BME280;63771;52.580;9.734;2023-02-04T03:15:38;102807.69;;;2.16;85.57
75192;BME280;63771;52.580;9.734;2023-02-04T03:18:03;102816.84;;;2.09;86.12
75192;BME280;63771;52.580;9.734;2023-02-04T03:20:30;102826.94;;;2.04;86.25
75192;BME280;63771;52.580;9.734;2023-02-04T03:22:57;102836.97;;;1.98;86.27
75192;BME280;63771;52.580;9.734;2023-02-04T03:25:25;102839.94;;;1.96;86.95
75192;BME280;63771;52.580;9.734;2023-02-04T03:27:53;102853.00;;;1.93;86.80
75192;BME280;63771;52.580;9.734;2023-02-04T03:30:19;102855.28;;;1.92;86.93
75192;BME280;63771;52.580;9.734;2023-02-04T03:32:45;102853.22;;;1.89;86.83
75192;BME280;63771;52.580;9.734;2023-02-04T03:35:10;102874.97;;;1.94;86.94
75192;BME280;63771;52.580;9.734;2023-02-04T03:37:35;102879.53;;;1.91;87.30
75192;BME280;63771;52.580;9.734;2023-02-04T03:40:01;102881.34;;;1.92;87.10
75192;BME280;63771;52.580;9.734;2023-02-04T03:42:26;102876.31;;;1.92;86.88
75192;BME280;63771;52.580;9.734;2023-02-04T03:44:51;102889.59;;;1.91;86.61
75192;BME280;63771;52.580;9.734;2023-02-04T03:47:17;102885.94;;;1.89;86.57
75192;BME280;63771;52.580;9.734;2023-02-04T03:49:42;102890.97;;;1.89;86.42
75192;BME280;63771;52.580;9.734;2023-02-04T03:52:07;102890.50;;;1.86;86.41
75192;BME280;63771;52.580;9.734;2023-02-04T03:54:33;102886.59;;;1.82;86.17
75192;BME280;63771;52.580;9.734;2023-02-04T03:56:58;102897.34;;;1.81;86.89
75192;BME280;63771;52.580;9.734;2023-02-04T03:59:23;102895.53;;;1.80;86.80
75192;BME280;63771;52.580;9.734;2023-02-04T04:01:48;102906.06;;;1.78;87.13
75192;BME280;63771;52.580;9.734;2023-02-04T04:04:14;102914.72;;;1.74;87.08
75192;BME280;63771;52.580;9.734;2023-02-04T04:06:39;102910.59;;;1.69;86.96
75192;BME280;63771;52.580;9.734;2023-02-04T04:09:05;102916.31;;;1.63;87.08
75192;BME280;63771;52.580;9.734;2023-02-04T04:11:30;102929.78;;;1.58;87.37
75192;BME280;63771;52.580;9.734;2023-02-04T04:13:55;102922.88;;;1.51;87.28
75192;BME280;63771;52.580;9.734;2023-02-04T04:16:21;102931.31;;;1.46;87.19
75192;BME280;63771;52.580;9.734;2023-02-04T04:18:46;102928.78;;;1.40;87.50
75192;BME280;63771;52.580;9.734;2023-02-04T04:21:12;102923.69;;;1.29;87.91
75192;BME280;63771;52.580;9.734;2023-02-04T04:23:37;102943.81;;;1.29;87.74
75192;BME280;63771;52.580;9.734;2023-02-04T04:26:02;102950.63;;;1.24;88.43
75192;BME280;63771;52.580;9.734;2023-02-04T04:28:28;102956.56;;;1.19;88.36
75192;BME280;63771;52.580;9.734;2023-02-04T04:30:53;102964.31;;;1.15;88.41
75192;BME280;63771;52.580;9.734;2023-02-04T04:33:18;102964.25;;;1.10;88.69
75192;BME280;63771;52.580;9.734;2023-02-04T04:35:44;102963.81;;;1.07;88.65
75192;BME280;63771;52.580;9.734;2023-02-04T04:38:09;102961.50;;;1.02;88.85
75192;BME280;63771;52.580;9.734;2023-02-04T04:40:34;102974.75;;;1.01;89.14
75192;BME280;63771;52.580;9.734;2023-02-04T04:43:00;102976.56;;;1.02;89.35
75192;BME280;63771;52.580;9.734;2023-02-04T04:45:25;102980.91;;;1.03;89.73
75192;BME280;63771;52.580;9.734;2023-02-04T04:47:50;102984.81;;;1.07;89.96
75192;BME280;63771;52.580;9.734;2023-02-04T04:50:16;102988.75;;;1.11;89.80
75192;BME280;63771;52.580;9.734;2023-02-04T04:52:41;102995.13;;;1.14;90.03
75192;BME280;63771;52.580;9.734;2023-02-04T04:55:07;103006.59;;;1.18;90.18
75192;BME280;63771;52.580;9.734;2023-02-04T04:57:33;103012.31;;;1.17;89.86
75192;BME280;63771;52.580;9.734;2023-02-04T04:59:58;103019.66;;;1.21;90.07
75192;BME280;63771;52.580;9.734;2023-02-04T05:02:23;103007.81;;;1.25;90.24
75192;BME280;63771;52.580;9.734;2023-02-04T05:04:49;103023.81;;;1.26;89.83
75192;BME280;63771;52.580;9.734;2023-02-04T05:07:14;103032.47;;;1.22;89.40
75192;BME280;63771;52.580;9.734;2023-02-04T05:09:39;103013.66;;;1.15;89.64
75192;BME280;63771;52.580;9.734;2023-02-04T05:12:05;103022.75;;;1.09;89.54
75192;BME280;63771;52.580;9.734;2023-02-04T05:14:30;103030.25;;;1.03;89.60
75192;BME280;63771;52.580;9.734;2023-02-04T05:16:56;103022.22;;;0.94;89.72
75192;BME280;63771;52.580;9.734;2023-02-04T05:19:21;103037.00;;;0.87;90.18
75192;BME280;63771;52.580;9.734;2023-02-04T05:21:46;103039.47;;;0.82;90.41
75192;BME280;63771;52.580;9.734;2023-02-04T05:24:12;103036.22;;;0.77;89.98
75192;BME280;63771;52.580;9.734;2023-02-04T05:26:37;103043.94;;;0.73;90.32
75192;BME280;63771;52.580;9.734;2023-02-04T05:29:02;103058.03;;;0.67;89.99
75192;BME280;63771;52.580;9.734;2023-02-04T05:31:28;103062.56;;;0.58;90.59
75192;BME280;63771;52.580;9.734;2023-02-04T05:33:53;103077.06;;;0.49;90.79
75192;BME280;63771;52.580;9.734;2023-02-04T05:36:19;103076.09;;;0.43;91.21
75192;BME280;63771;52.580;9.734;2023-02-04T05:38:44;103078.38;;;0.42;91.08
75192;BME280;63771;52.580;9.734;2023-02-04T05:41:10;103076.28;;;0.39;91.21
75192;BME280;63771;52.580;9.734;2023-02-04T05:43:36;103076.44;;;0.35;90.82
75192;BME280;63771;52.580;9.734;2023-02-04T05:46:01;103072.28;;;0.30;91.01
75192;BME280;63771;52.580;9.734;2023-02-04T05:48:27;103077.31;;;0.30;91.11
75192;BME280;63771;52.580;9.734;2023-02-04T05:50:52;103084.38;;;0.27;90.98
75192;BME280;63771;52.580;9.734;2023-02-04T05:53:17;103085.22;;;0.22;90.82
75192;BME280;63771;52.580;9.734;2023-02-04T05:55:43;103097.03;;;0.17;90.83
75192;BME280;63771;52.580;9.734;2023-02-04T05:58:08;103104.97;;;0.15;91.11
75192;BME280;63771;52.580;9.734;2023-02-04T06:00:33;103110.81;;;0.10;91.15
75192;BME280;63771;52.580;9.734;2023-02-04T06:02:59;103107.16;;;0.08;91.16
75192;BME280;63771;52.580;9.734;2023-02-04T06:05:24;103112.34;;;0.04;91.18
75192;BME280;63771;52.580;9.734;2023-02-04T06:07:50;103107.78;;;0.01;91.36
75192;BME280;63771;52.580;9.734;2023-02-04T06:10:15;103111.13;;;-0.04;91.13
75192;BME280;63771;52.580;9.734;2023-02-04T06:12:41;103092.75;;;-0.14;91.31
75192;BME280;63771;52.580;9.734;2023-02-04T06:15:06;103112.38;;;-0.12;91.00
75192;BME280;63771;52.580;9.734;2023-02-04T06:17:32;103113.22;;;-0.17;91.01
75192;BME280;63771;52.580;9.734;2023-02-04T06:19:57;103122.50;;;-0.21;90.70
75192;BME280;63771;52.580;9.734;2023-02-04T06:22:23;103133.63;;;-0.25;90.96
75192;BME280;63771;52.580;9.734;2023-02-04T06:24:50;103155.69;;;-0.28;91.03
75192;BME280;63771;52.580;9.734;2023-02-04T06:27:15;103147.69;;;-0.31;91.48
75192;BME280;63771;52.580;9.734;2023-02-04T06:29:48;103152.88;;;-0.35;91.71
75192;BME280;63771;52.580;9.734;2023-02-04T06:32:14;103148.25;;;-0.38;91.52
75192;BME280;63771;52.580;9.734;2023-02-04T06:34:39;103147.09;;;-0.40;91.29
75192;BME280;63771;52.580;9.734;2023-02-04T06:37:04;103150.69;;;-0.43;91.75
75192;BME280;63771;52.580;9.734;2023-02-04T06:39:30;103154.53;;;-0.45;91.79
75192;BME280;63771;52.580;9.734;2023-02-04T06:41:55;103158.34;;;-0.47;91.59
75192;BME280;63771;52.580;9.734;2023-02-04T06:44:20;103159.72;;;-0.49;91.57
75192;BME280;63771;52.580;9.734;2023-02-04T06:46:46;103157.34;;;-0.54;91.36
75192;BME280;63771;52.580;9.734;2023-02-04T06:49:11;103164.38;;;-0.57;91.58
75192;BME280;63771;52.580;9.734;2023-02-04T06:51:36;103174.81;;;-0.59;91.57
75192;BME280;63771;52.580;9.734;2023-02-04T06:54:02;103180.50;;;-0.60;91.95
75192;BME280;63771;52.580;9.734;2023-02-04T06:56:27;103187.78;;;-0.62;92.06
75192;BME280;63771;52.580;9.734;2023-02-04T06:58:53;103195.94;;;-0.63;92.31
75192;BME280;63771;52.580;9.734;2023-02-04T07:01:19;103195.00;;;-0.63;92.55
75192;BME280;63771;52.580;9.734;2023-02-04T07:03:44;103200.69;;;-0.64;92.31
75192;BME280;63771;52.580;9.734;2023-02-04T07:06:09;103211.41;;;-0.65;92.25
75192;BME280;63771;52.580;9.734;2023-02-04T07:08:35;103208.47;;;-0.63;92.48
75192;BME280;63771;52.580;9.734;2023-02-04T07:11:00;103209.41;;;-0.62;92.68
75192;BME280;63771;52.580;9.734;2023-02-04T07:13:26;103215.16;;;-0.58;92.85
75192;BME280;63771;52.580;9.734;2023-02-04T07:15:51;103217.50;;;-0.54;92.78
75192;BME280;63771;52.580;9.734;2023-02-04T07:18:17;103222.38;;;-0.49;92.57
75192;BME280;63771;52.580;9.734;2023-02-04T07:20:44;103220.13;;;-0.48;92.47
75192;BME280;63771;52.580;9.734;2023-02-04T07:23:09;103218.53;;;-0.47;92.32
75192;BME280;63771;52.580;9.734;2023-02-04T07:25:34;103220.41;;;-0.46;92.71
75192;BME280;63771;52.580;9.734;2023-02-04T07:28:00;103224.06;;;-0.44;92.79
75192;BME280;63771;52.580;9.734;2023-02-04T07:30:28;103233.94;;;-0.40;92.78
75192;BME280;63771;52.580;9.734;2023-02-04T07:32:53;103238.28;;;-0.39;92.86
75192;BME280;63771;52.580;9.734;2023-02-04T07:35:19;103234.41;;;-0.37;92.67
75192;BME280;63771;52.580;9.734;2023-02-04T07:37:44;103244.16;;;-0.29;92.87
75192;BME280;63771;52.580;9.734;2023-02-04T07:40:11;103244.00;;;-0.25;92.79
75192;BME280;63771;52.580;9.734;2023-02-04T07:42:36;103250.00;;;-0.19;92.70
75192;BME280;63771;52.580;9.734;2023-02-04T07:45:02;103251.44;;;-0.15;92.25
75192;BME280;63771;52.580;9.734;2023-02-04T07:47:28;103261.03;;;-0.13;92.53
75192;BME280;63771;52.580;9.734;2023-02-04T07:49:53;103272.25;;;-0.11;92.51
75192;BME280;63771;52.580;9.734;2023-02-04T07:52:22;103274.34;;;-0.08;92.52
75192;BME280;63771;52.580;9.734;2023-02-04T07:54:47;103273.28;;;-0.05;92.46
75192;BME280;63771;52.580;9.734;2023-02-04T07:57:13;103278.09;;;-0.01;92.58
75192;BME280;63771;52.580;9.734;2023-02-04T07:59:38;103280.91;;;0.01;92.50
75192;BME280;63771;52.580;9.734;2023-02-04T08:02:04;103282.97;;;0.04;92.45
75192;BME280;63771;52.580;9.734;2023-02-04T08:04:29;103285.56;;;0.09;92.17
75192;BME280;63771;52.580;9.734;2023-02-04T08:06:54;103280.63;;;0.15;92.25
75192;BME280;63771;52.580;9.734;2023-02-04T08:09:20;103286.16;;;0.18;92.34
75192;BME280;63771;52.580;9.734;2023-02-04T08:11:45;103288.50;;;0.22;92.50
75192;BME280;63771;52.580;9.734;2023-02-04T08:14:11;103285.81;;;0.26;92.33
75192;BME280;63771;52.580;9.734;2023-02-04T08:16:36;103280.63;;;0.30;92.36
75192;BME280;63771;52.580;9.734;2023-02-04T08:19:02;103282.28;;;0.35;92.50
75192;BME280;63771;52.580;9.734;2023-02-04T08:21:27;103288.06;;;0.40;92.60
75192;BME280;63771;52.580;9.734;2023-02-04T08:23:53;103283.38;;;0.47;92.47
75192;BME280;63771;52.580;9.734;2023-02-04T08:26:18;103279.09;;;0.51;92.51
75192;BME280;63771;52.580;9.734;2023-02-04T08:28:43;103273.50;;;0.58;92.58
75192;BME280;63771;52.580;9.734;2023-02-04T08:31:09;103277.47;;;0.67;92.41
75192;BME280;63771;52.580;9.734;2023-02-04T08:33:38;103278.50;;;0.73;92.00
75192;BME280;63771;52.580;9.734;2023-02-04T08:36:07;103285.44;;;0.80;91.50
75192;BME280;63771;52.580;9.734;2023-02-04T08:38:32;103285.25;;;0.84;91.44
75192;BME280;63771;52.580;9.734;2023-02-04T08:40:57;103295.31;;;0.84;91.32
75192;BME280;63771;52.580;9.734;2023-02-04T08:43:24;103294.78;;;0.81;91.26
75192;BME280;63771;52.580;9.734;2023-02-04T08:45:49;103298.00;;;0.80;91.82
75192;BME280;63771;52.580;9.734;2023-02-04T08:48:15;103301.47;;;0.86;92.38
75192;BME280;63771;52.580;9.734;2023-02-04T08:50:40;103304.13;;;0.97;92.59
75192;BME280;63771;52.580;9.734;2023-02-04T08:53:05;103309.06;;;1.07;92.48
75192;BME280;63771;52.580;9.734;2023-02-04T08:55:31;103307.34;;;1.17;92.67
75192;BME280;63771;52.580;9.734;2023-02-04T08:57:56;103311.75;;;1.24;92.66
75192;BME280;63771;52.580;9.734;2023-02-04T09:00:23;103320.94;;;1.29;91.80
75192;BME280;63771;52.580;9.734;2023-02-04T09:02:48;103322.13;;;1.31;91.60
75192;BME280;63771;52.580;9.734;2023-02-04T09:05:14;103330.84;;;1.33;91.71
75192;BME280;63771;52.580;9.734;2023-02-04T09:07:39;103328.81;;;1.36;91.71
75192;BME280;63771;52.580;9.734;2023-02-04T09:10:05;103327.00;;;1.41;91.04
75192;BME280;63771;52.580;9.734;2023-02-04T09:12:30;103322.72;;;1.45;90.91
75192;BME280;63771;52.580;9.734;2023-02-04T09:14:55;103331.69;;;1.49;90.83
75192;BME280;63771;52.580;9.734;2023-02-04T09:17:21;103337.88;;;1.51;90.66
75192;BME280;63771;52.580;9.734;2023-02-04T09:19:46;103340.44;;;1.56;90.20
75192;BME280;63771;52.580;9.734;2023-02-04T09:22:11;103354.66;;;1.62;89.90
75192;BME280;63771;52.580;9.734;2023-02-04T09:24:37;103346.25;;;1.67;89.39
75192;BME280;63771;52.580;9.734;2023-02-04T09:27:03;103353.41;;;1.69;89.39
75192;BME280;63771;52.580;9.734;2023-02-04T09:29:28;103350.94;;;1.75;89.19
75192;BME280;63771;52.580;9.734;2023-02-04T09:31:54;103361.28;;;1.82;88.90
75192;BME280;63771;52.580;9.734;2023-02-04T09:34:19;103352.41;;;1.84;88.56
75192;BME280;63771;52.580;9.734;2023-02-04T09:36:44;103350.63;;;1.89;88.68
75192;BME280;63771;52.580;9.734;2023-02-04T09:39:10;103356.38;;;1.93;88.34
75192;BME280;63771;52.580;9.734;2023-02-04T09:41:37;103364.91;;;1.99;88.22
75192;BME280;63771;52.580;9.734;2023-02-04T09:44:04;103355.97;;;2.01;88.06
75192;BME280;63771;52.580;9.734;2023-02-04T09:46:32;103361.97;;;2.07;87.96
75192;BME280;63771;52.580;9.734;2023-02-04T09:48:58;103359.25;;;2.12;87.61
75192;BME280;63771;52.580;9.734;2023-02-04T09:51:28;103358.41;;;2.17;87.18
75192;BME280;63771;52.580;9.734;2023-02-04T09:54:04;103364.38;;;2.23;87.07
75192;BME280;63771;52.580;9.734;2023-02-04T09:56:31;103368.31;;;2.26;86.35
75192;BME280;63771;52.580;9.734;2023-02-04T09:58:56;103375.91;;;2.32;86.26
75192;BME280;63771;52.580;9.734;2023-02-04T10:01:22;103387.19;;;2.40;84.68
75192;BME280;63771;52.580;9.734;2023-02-04T10:03:48;103393.44;;;2.47;84.11
75192;BME280;63771;52.580;9.734;2023-02-04T10:06:17;103387.53;;;2.52;83.80
75192;BME280;63771;52.580;9.734;2023-02-04T10:08:44;103384.81;;;2.56;84.05
75192;BME280;63771;52.580;9.734;2023-02-04T10:11:10;103395.84;;;2.63;83.03
75192;BME280;63771;52.580;9.734;2023-02-04T10:13:47;103401.38;;;2.71;82.62
75192;BME280;63771;52.580;9.734;2023-02-04T10:16:19;103400.25;;;2.75;83.00
75192;BME280;63771;52.580;9.734;2023-02-04T10:18:45;103396.44;;;2.82;82.73
75192;BME280;63771;52.580;9.734;2023-02-04T10:21:24;103381.00;;;2.75;82.12
75192;BME280;63771;52.580;9.734;2023-02-04T10:23:54;103394.69;;;2.98;81.08
75192;BME280;63771;52.580;9.734;2023-02-04T10:26:21;103399.97;;;3.05;80.61
75192;BME280;63771;52.580;9.734;2023-02-04T10:28:46;103395.66;;;3.10;79.85
75192;BME280;63771;52.580;9.734;2023-02-04T10:34:23;103411.78;;;3.33;77.12
75192;BME280;63771;52.580;9.734;2023-02-04T10:36:50;103414.81;;;3.36;77.92
75192;BME280;63771;52.580;9.734;2023-02-04T10:39:21;103422.81;;;3.39;78.18
75192;BME280;63771;52.580;9.734;2023-02-04T10:41:52;103414.34;;;3.44;78.14
75192;BME280;63771;52.580;9.734;2023-02-04T10:44:24;103421.50;;;3.52;75.99
75192;BME280;63771;52.580;9.734;2023-02-04T10:47:00;103418.31;;;3.53;76.74
75192;BME280;63771;52.580;9.734;2023-02-04T10:49:26;103417.84;;;3.50;77.05
75192;BME280;63771;52.580;9.734;2023-02-04T10:51:51;103415.09;;;3.54;76.97
75192;BME280;63771;52.580;9.734;2023-02-04T10:54:20;103418.78;;;3.56;75.81
75192;BME280;63771;52.580;9.734;2023-02-04T10:57:21;103411.66;;;3.54;75.05
75192;BME280;63771;52.580;9.734;2023-02-04T10:59:54;103394.44;;;3.51;75.73
75192;BME280;63771;52.580;9.734;2023-02-04T11:05:00;103405.69;;;3.59;75.50
75192;BME280;63771;52.580;9.734;2023-02-04T11:07:25;103410.31;;;3.61;75.24
75192;BME280;63771;52.580;9.734;2023-02-04T11:09:51;103414.69;;;3.68;74.55
75192;BME280;63771;52.580;9.734;2023-02-04T11:12:42;103421.13;;;3.72;76.17
75192;BME280;63771;52.580;9.734;2023-02-04T11:18:24;103421.84;;;3.82;76.07
75192;BME280;63771;52.580;9.734;2023-02-04T11:20:54;103420.25;;;3.88;77.07
75192;BME280;63771;52.580;9.734;2023-02-04T11:28:49;103410.38;;;4.01;76.47
75192;BME280;63771;52.580;9.734;2023-02-04T11:33:44;103415.22;;;4.05;75.82
75192;BME280;63771;52.580;9.734;2023-02-04T11:36:11;103423.47;;;4.04;75.22
75192;BME280;63771;52.580;9.734;2023-02-04T11:38:37;103408.78;;;4.07;72.62
75192;BME280;63771;52.580;9.734;2023-02-04T11:41:04;103427.84;;;4.10;73.43
75192;BME280;63771;52.580;9.734;2023-02-04T11:43:34;103420.75;;;4.13;73.06
75192;BME280;63771;52.580;9.734;2023-02-04T11:46:04;103418.22;;;4.19;72.15
75192;BME280;63771;52.580;9.734;2023-02-04T11:48:34;103432.47;;;4.30;73.19
75192;BME280;63771;52.580;9.734;2023-02-04T11:51:02;103426.94;;;4.38;72.14
75192;BME280;63771;52.580;9.734;2023-02-04T11:53:34;103426.00;;;4.43;72.97
75192;BME280;63771;52.580;9.734;2023-02-04T11:55:59;103421.41;;;4.52;73.00
75192;BME280;63771;52.580;9.734;2023-02-04T11:58:28;103410.59;;;4.58;71.97
75192;BME280;63771;52.580;9.734;2023-02-04T12:00:55;103421.63;;;4.76;72.32
75192;BME280;63771;52.580;9.734;2023-02-04T12:05:48;103419.06;;;4.92;71.40
75192;BME280;63771;52.580;9.734;2023-02-04T12:13:20;103415.13;;;5.00;71.55
75192;BME280;63771;52.580;9.734;2023-02-04T12:16:04;103416.28;;;5.02;71.07
75192;BME280;63771;52.580;9.734;2023-02-04T12:18:32;103422.00;;;5.01;71.58
75192;BME280;63771;52.580;9.734;2023-02-04T12:20:58;103432.16;;;5.07;71.59
75192;BME280;63771;52.580;9.734;2023-02-04T12:23:25;103430.06;;;5.04;70.59
75192;BME280;63771;52.580;9.734;2023-02-04T12:25:51;103429.84;;;5.03;70.59
75192;BME280;63771;52.580;9.734;2023-02-04T12:28:16;103435.81;;;5.03;69.87
75192;BME280;63771;52.580;9.734;2023-02-04T12:30:42;103436.53;;;5.02;70.64
75192;BME280;63771;52.580;9.734;2023-02-04T12:33:07;103428.47;;;4.99;71.01
75192;BME280;63771;52.580;9.734;2023-02-04T12:35:33;103434.91;;;5.03;71.26
75192;BME280;63771;52.580;9.734;2023-02-04T12:37:58;103442.72;;;5.04;71.16
75192;BME280;63771;52.580;9.734;2023-02-04T12:40:24;103441.81;;;5.04;70.73
75192;BME280;63771;52.580;9.734;2023-02-04T12:42:50;103437.47;;;4.97;71.50
75192;BME280;63771;52.580;9.734;2023-02-04T12:45:16;103445.47;;;5.00;71.08
75192;BME280;63771;52.580;9.734;2023-02-04T12:47:42;103444.56;;;4.94;70.63
75192;BME280;63771;52.580;9.734;2023-02-04T12:50:10;103451.03;;;4.92;70.32
75192;BME280;63771;52.580;9.734;2023-02-04T12:52:35;103447.13;;;4.88;69.10
75192;BME280;63771;52.580;9.734;2023-02-04T12:55:02;103446.91;;;4.87;70.59
75192;BME280;63771;52.580;9.734;2023-02-04T12:57:30;103446.22;;;4.88;70.33
75192;BME280;63771;52.580;9.734;2023-02-04T12:59:55;103449.22;;;4.91;69.26
75192;BME280;63771;52.580;9.734;2023-02-04T13:02:23;103444.13;;;4.96;67.28
75192;BME280;63771;52.580;9.734;2023-02-04T13:04:49;103453.06;;;5.06;66.29
75192;BME280;63771;52.580;9.734;2023-02-04T13:07:14;103455.56;;;5.11;66.55
75192;BME280;63771;52.580;9.734;2023-02-04T13:09:40;103449.16;;;5.13;66.88
75192;BME280;63771;52.580;9.734;2023-02-04T13:12:05;103453.75;;;5.10;67.22
75192;BME280;63771;52.580;9.734;2023-02-04T13:14:31;103456.97;;;5.09;66.83
75192;BME280;63771;52.580;9.734;2023-02-04T13:16:57;103452.84;;;5.04;66.92
75192;BME280;63771;52.580;9.734;2023-02-04T13:19:22;103455.84;;;5.02;67.08